Humidity-temperature Sensor

Selected Measurement Type: Relative Humidity

 
Relative Humidity [%]     6 entries per hour
Showing data from 5/23/2018 (00:00:00 Z) to 5/22/2018 (00:01:00 Z)
Previous Next [ Day | 3-Days | 7-Days ]
First Last
Prev [ Day | 3-Days | 7-Days ] Next
First Last

Start Time:     :
End Time:     :     
Time (in GMT) :00 :50 :40 :30 :20 :10
Previous Next [ Day | 3-Days | 7-Days ]
First Last
Prev [ Day | 3-Days | 7-Days ] Next
First Last


123 => good data
MM => data is determined as missing
-- => data not received/configured
Back to Top Back to Top
5/23/2018 00:00 to 23:10 81.02 77.10 77.72 78.96 78.07 78.12
5/22/2018 23:00 to 22:10 78.99 79.67 79.67 75.17 78.84 79.19
5/22/2018 22:00 to 21:10 80.68 79.79 79.05 77.87 76.85 77.25
5/22/2018 21:00 to 20:10 80.17 82.34 82.76 82.03 83.11 80.19
5/22/2018 20:00 to 19:10 79.67 77.83 79.09 78.65 79.50 78.72
5/22/2018 19:00 to 18:10 78.20 79.40 80.41 79.36 79.88 79.25
5/22/2018 18:00 to 17:10 79.75 77.51 80.12 80.06 84.58 88.54
5/22/2018 17:00 to 16:10 82.05 82.15 81.51 82.03 82.61 81.55
5/22/2018 16:00 to 15:10 81.43 80.64 80.79 80.91 80.10 79.50
5/22/2018 15:00 to 14:10 80.37 80.95 80.23 80.50 79.65 80.39
5/22/2018 14:00 to 13:10 80.31 79.17 80.95 79.34 80.37 79.11
5/22/2018 13:00 to 12:10 78.18 78.99 78.88 78.22 78.38 79.13
5/22/2018 12:00 to 11:10 79.23 77.85 76.56 78.59 77.25 77.62
5/22/2018 11:00 to 10:10 77.83 78.14 78.94 76.91 76.85 75.13
5/22/2018 10:00 to 9:10 75.71 76.79 77.49 77.60 76.93 76.50
5/22/2018 09:00 to 8:10 77.27 77.25 76.54 77.51 78.38 76.17
5/22/2018 08:00 to 7:10 77.25 77.22 76.33 76.56 76.25 75.19
5/22/2018 07:00 to 6:10 77.47 77.45 78.18 76.87 75.77 78.28
5/22/2018 06:00 to 5:10 76.52 77.27 77.14 75.09 78.07 76.54
5/22/2018 05:00 to 4:10 77.60 75.98 77.29 74.74 77.47 77.31
5/22/2018 04:00 to 3:10 76.56 74.59 76.44 77.00 75.48 78.01
5/22/2018 03:00 to 2:10 77.62 77.74 78.07 78.84 79.67 77.31
5/22/2018 02:00 to 1:10 80.39 80.27 81.33 81.18 80.50 81.60
5/22/2018 01:00 to 0:10 79.38 78.57 80.91 79.54 81.28 80.60